Search for airport 
image banner adimage banner adimage banner ad
image banner ad

KMYV - Yuba County

Located in Marysville, United States

ICAO - MYV, IATA - MYV

Data provided by Airmate  

General information

Coordinates: N39°5'52" W121°34'11"
Elevation is 64 feet MSL.
Magnetic variation is 16° East
View others Airports in California

Operational data

Special qualification required
Current time UTC:
Current local time:
Weather
METAR: KMYV 240553Z AUTO 16009KT 10SM CLR 22/13 A2989 RMK AO2 SLP124 T02220128 10328 20222 $
View NOTAMs / SUP AIP / TFR affecting this airport [VIEW]
Communications frequencies: [VIEW]

Runways:

RWY identifierQFULength (ft)Width (ft)SurfaceLDA (ft)
0567°331460ASPH
23247°331460ASPH
14157°6007150ASPH
32337°6007150ASPH

Airport contact information

Address: Marysville United States

Satellite view of KMYV